createdAt,value
2017-02-08T04:01:13.021Z,73.5
2017-02-08T04:01:38.588Z,73.69
2017-02-08T04:02:04.143Z,73.5
2017-02-08T04:02:29.703Z,73.88
2017-02-08T04:02:55.349Z,73.88
2017-02-08T04:03:20.940Z,73.69
2017-02-08T04:03:46.513Z,73.88
2017-02-08T04:04:12.109Z,73.79
2017-02-08T04:04:37.702Z,73.88
2017-02-08T04:05:03.256Z,73.88
2017-02-08T04:05:28.802Z,73.79
2017-02-08T04:05:54.378Z,73.69
2017-02-08T04:06:19.952Z,73.59
2017-02-08T04:06:45.521Z,73.69
2017-02-08T04:07:11.131Z,73.5
2017-02-08T04:07:36.861Z,73.79
2017-02-08T04:08:02.421Z,73.5
2017-02-08T04:08:27.981Z,73.5
2017-02-08T04:08:53.562Z,73.69
2017-02-08T04:09:19.283Z,73.5
2017-02-08T04:09:44.832Z,73.97
2017-02-08T04:10:10.390Z,73.5
2017-02-08T04:10:35.963Z,73.88
2017-02-08T04:11:01.507Z,73.88
2017-02-08T04:11:27.124Z,73.59
2017-02-08T04:11:52.672Z,73.5
2017-02-08T04:12:18.254Z,73.88
2017-02-08T04:12:43.872Z,73.69
2017-02-08T04:13:09.462Z,73.5
2017-02-08T04:13:35.022Z,73.5
2017-02-08T04:14:00.584Z,73.79
2017-02-08T04:15:09.121Z,73.69
2017-02-08T04:15:34.797Z,73.69
2017-02-08T04:16:01.831Z,73.59
2017-02-08T04:18:07.539Z,73.5
2017-02-08T04:18:33.237Z,73.69
2017-02-08T04:18:58.776Z,73.88
2017-02-08T04:19:24.463Z,73.88
2017-02-08T04:19:50.018Z,73.88
2017-02-08T04:20:15.575Z,73.79
2017-02-08T04:20:41.125Z,73.69
2017-02-08T04:21:06.693Z,73.5
2017-02-08T04:21:32.240Z,73.88
2017-02-08T04:21:57.855Z,73.69
2017-02-08T04:22:23.413Z,73.59
2017-02-08T04:22:48.950Z,73.59
2017-02-08T04:23:14.513Z,73.69
2017-02-08T04:23:40.061Z,73.79
2017-02-08T04:24:05.644Z,73.69
2017-02-08T04:24:31.234Z,73.59
2017-02-08T04:24:56.786Z,73.59
2017-02-08T04:25:22.335Z,73.69
2017-02-08T04:25:47.911Z,73.69
2017-02-08T04:26:13.455Z,73.69
2017-02-08T04:26:39.004Z,73.69
2017-02-08T04:27:04.645Z,73.79
2017-02-08T04:27:30.188Z,73.5
2017-02-08T04:27:55.764Z,73.5
2017-02-08T04:28:21.316Z,73.5
2017-02-08T04:28:46.866Z,73.5
2017-02-08T04:29:12.403Z,73.59
2017-02-08T04:29:37.952Z,73.4
2017-02-08T04:30:03.592Z,73.97
2017-02-08T04:30:29.145Z,73.88
2017-02-08T04:30:55.005Z,73.79
2017-02-08T04:31:20.544Z,73.79
2017-02-08T04:31:46.093Z,73.79
2017-02-08T04:32:11.738Z,73.69
2017-02-08T04:32:37.297Z,73.88
2017-02-08T04:33:02.839Z,73.69
2017-02-08T04:33:28.403Z,73.79
2017-02-08T04:33:53.943Z,73.79
2017-02-08T04:34:52.290Z,73.59
2017-02-08T04:35:17.852Z,73.5
2017-02-08T04:35:43.392Z,73.59
2017-02-08T04:36:09.042Z,73.97
2017-02-08T04:36:34.594Z,74.16
2017-02-08T04:37:00.162Z,73.97
2017-02-08T04:37:25.866Z,73.97
2017-02-08T04:37:51.411Z,73.88
2017-02-08T04:38:16.953Z,73.4
2017-02-08T04:38:42.528Z,73.59
2017-02-08T04:39:08.093Z,73.79
2017-02-08T04:39:33.651Z,73.79
2017-02-08T04:39:59.189Z,73.79
2017-02-08T04:40:24.758Z,73.79
2017-02-08T04:40:50.294Z,73.69
2017-02-08T04:41:15.854Z,73.59
2017-02-08T04:41:41.405Z,73.5
2017-02-08T04:42:07.023Z,73.69
2017-02-08T04:42:32.585Z,73.69
2017-02-08T04:42:58.124Z,73.5
2017-02-08T04:44:11.819Z,73.5
2017-02-08T04:45:20.103Z,73.5
2017-02-08T04:45:45.673Z,73.69
2017-02-08T04:46:11.222Z,73.79
2017-02-08T04:46:36.756Z,73.88
2017-02-08T04:47:02.296Z,73.88
2017-02-08T04:47:27.858Z,73.69
2017-02-08T04:47:53.452Z,73.79
2017-02-08T04:48:18.981Z,73.88
2017-02-08T04:48:44.542Z,73.69
2017-02-08T04:49:48.054Z,73.79
2017-02-08T04:50:13.602Z,73.88
2017-02-08T04:51:26.975Z,73.88
2017-02-08T04:51:52.556Z,73.79
2017-02-08T04:52:18.239Z,73.79
2017-02-08T04:52:43.772Z,73.79
2017-02-08T04:53:09.455Z,74.26
2017-02-08T04:53:35.038Z,73.59
2017-02-08T04:54:00.590Z,73.69
2017-02-08T04:54:26.252Z,73.88
2017-02-08T04:54:51.790Z,73.69
2017-02-08T04:55:17.339Z,73.5
2017-02-08T04:55:42.884Z,73.69
2017-02-08T04:56:08.428Z,73.69
2017-02-08T04:56:33.978Z,73.79
2017-02-08T04:56:59.663Z,73.97
2017-02-08T04:57:25.214Z,73.88
2017-02-08T04:57:50.780Z,74.07
2017-02-08T04:58:16.436Z,74.16
2017-02-08T04:58:42.053Z,73.88
2017-02-08T04:59:07.640Z,73.88
2017-02-08T04:59:33.228Z,74.07
2017-02-08T04:59:58.899Z,73.59
2017-02-08T05:00:24.465Z,74.16
2017-02-08T05:00:50.012Z,73.69
2017-02-08T05:01:15.676Z,73.69
2017-02-08T05:01:41.255Z,73.88
2017-02-08T05:02:06.801Z,73.97
2017-02-08T05:02:32.333Z,73.69
2017-02-08T05:02:58.020Z,73.69
2017-02-08T05:03:23.585Z,73.79
2017-02-08T05:03:49.135Z,73.69
2017-02-08T05:04:14.692Z,74.16
2017-02-08T05:04:40.267Z,74.26
2017-02-08T05:05:05.862Z,74.07
2017-02-08T05:05:31.422Z,73.59
2017-02-08T05:05:56.972Z,74.07
2017-02-08T05:06:22.545Z,73.59
2017-02-08T05:06:48.099Z,73.79
2017-02-08T05:07:13.664Z,73.88
2017-02-08T05:07:39.214Z,73.88
2017-02-08T05:08:04.807Z,73.88
2017-02-08T05:08:30.378Z,73.59
2017-02-08T05:08:55.939Z,73.5
2017-02-08T05:09:21.502Z,73.69
2017-02-08T05:09:47.108Z,73.69
2017-02-08T05:10:12.704Z,73.69
2017-02-08T05:10:38.251Z,73.88
2017-02-08T05:11:03.820Z,73.88
2017-02-08T05:11:29.387Z,73.88
2017-02-08T05:11:54.934Z,73.69
2017-02-08T05:12:20.544Z,73.88
2017-02-08T05:12:46.093Z,73.88
2017-02-08T05:13:11.650Z,73.79
2017-02-08T05:13:37.208Z,73.88
2017-02-08T05:14:02.766Z,73.88
2017-02-08T05:14:28.366Z,73.88
2017-02-08T05:14:53.968Z,73.88
2017-02-08T05:15:19.510Z,73.88
2017-02-08T05:15:45.062Z,73.59
2017-02-08T05:16:10.739Z,73.5
2017-02-08T05:16:36.322Z,73.69
2017-02-08T05:17:01.854Z,73.79
2017-02-08T05:17:27.548Z,73.69
2017-02-08T05:17:53.103Z,73.69
2017-02-08T05:18:18.652Z,73.79
2017-02-08T05:18:44.319Z,73.69
2017-02-08T05:19:09.878Z,73.79
2017-02-08T05:19:35.432Z,73.5
2017-02-08T05:20:00.982Z,73.88
2017-02-08T05:20:26.545Z,73.79
2017-02-08T05:20:52.108Z,73.5
2017-02-08T05:21:17.666Z,73.69
2017-02-08T05:21:43.224Z,73.69
2017-02-08T05:22:08.792Z,73.69
2017-02-08T05:22:34.488Z,73.4
2017-02-08T05:23:00.136Z,73.88
2017-02-08T05:23:25.713Z,73.79
2017-02-08T05:23:51.331Z,73.79
2017-02-08T05:24:16.854Z,73.5
2017-02-08T05:24:42.416Z,73.5
2017-02-08T05:25:07.965Z,73.69
2017-02-08T05:25:33.741Z,73.59
2017-02-08T05:25:59.343Z,73.5
2017-02-08T05:26:24.866Z,73.59
2017-02-08T05:26:50.416Z,73.69
2017-02-08T05:27:15.970Z,73.69
2017-02-08T05:27:41.531Z,73.5
2017-02-08T05:28:07.159Z,73.79
2017-02-08T05:28:32.717Z,73.79
2017-02-08T05:28:58.276Z,73.59
2017-02-08T05:29:23.869Z,73.79
2017-02-08T05:29:49.421Z,73.79
2017-02-08T05:30:14.973Z,73.79
2017-02-08T05:30:40.715Z,73.88
2017-02-08T05:31:06.252Z,73.5
2017-02-08T05:31:31.818Z,73.69
2017-02-08T05:31:57.383Z,73.59
2017-02-08T05:32:23.074Z,73.69
2017-02-08T05:32:48.626Z,73.59
2017-02-08T05:33:14.207Z,73.5
2017-02-08T05:33:39.763Z,73.5
2017-02-08T05:34:05.327Z,73.5
2017-02-08T05:34:30.890Z,73.88
2017-02-08T05:34:56.438Z,73.88
2017-02-08T05:35:21.985Z,73.79
2017-02-08T05:35:47.544Z,74.07
2017-02-08T05:36:13.106Z,73.59
2017-02-08T05:36:38.680Z,74.16
2017-02-08T05:37:04.242Z,74.26
2017-02-08T05:37:29.814Z,74.36
2017-02-08T05:37:55.446Z,73.69
2017-02-08T05:38:21.039Z,73.97
2017-02-08T05:38:46.637Z,73.97
2017-02-08T05:39:12.206Z,74.16
2017-02-08T05:39:37.882Z,73.88
2017-02-08T05:40:03.466Z,74.16
2017-02-08T05:40:29.021Z,73.88
2017-02-08T05:40:54.645Z,73.88
2017-02-08T05:41:20.274Z,74.16
2017-02-08T05:41:45.846Z,74.16
2017-02-08T05:42:11.415Z,74.16
2017-02-08T05:42:36.986Z,74.07
2017-02-08T05:43:02.525Z,74.07
2017-02-08T05:43:28.086Z,73.79
2017-02-08T05:43:53.647Z,73.79
2017-02-08T05:44:19.205Z,73.79
2017-02-08T05:44:44.823Z,74.26
2017-02-08T05:45:10.393Z,73.79
2017-02-08T05:45:35.964Z,73.79
2017-02-08T05:46:01.551Z,73.97
2017-02-08T05:46:27.127Z,74.16
2017-02-08T05:46:52.693Z,73.69
2017-02-08T05:47:18.275Z,74.07
2017-02-08T05:47:43.841Z,74.26
2017-02-08T05:48:09.422Z,73.97
2017-02-08T05:48:35.026Z,73.97
2017-02-08T05:49:00.589Z,74.16
2017-02-08T05:49:26.166Z,74.07
2017-02-08T05:49:51.817Z,73.79
2017-02-08T05:50:17.390Z,73.69
2017-02-08T05:50:42.996Z,73.88
2017-02-08T05:51:08.551Z,73.88
2017-02-08T05:51:34.158Z,73.69
2017-02-08T05:51:59.705Z,73.5
2017-02-08T05:52:25.383Z,73.5
2017-02-08T05:52:50.941Z,73.69
2017-02-08T05:53:16.512Z,73.59
2017-02-08T05:53:42.097Z,73.4
2017-02-08T05:54:07.772Z,73.5
2017-02-08T05:54:33.341Z,73.69
2017-02-08T05:54:58.900Z,73.69
2017-02-08T05:55:24.483Z,73.79
2017-02-08T05:55:50.219Z,73.79
2017-02-08T05:56:15.763Z,73.79
2017-02-08T05:56:41.328Z,73.79
2017-02-08T05:57:06.896Z,73.59
2017-02-08T05:57:32.483Z,73.5
2017-02-08T05:57:58.044Z,73.59
2017-02-08T05:58:23.638Z,73.5
2017-02-08T05:58:49.207Z,73.59
2017-02-08T05:59:14.804Z,73.59
2017-02-08T05:59:40.373Z,73.59
2017-02-08T06:00:05.936Z,73.5
2017-02-08T06:00:31.603Z,73.59
2017-02-08T06:00:57.195Z,73.69
2017-02-08T06:01:22.750Z,73.59
2017-02-08T06:01:48.303Z,73.69
2017-02-08T06:02:14.047Z,73.79
2017-02-08T06:02:39.622Z,73.79
2017-02-08T06:03:05.216Z,73.79
2017-02-08T06:03:30.772Z,73.69
2017-02-08T06:03:56.384Z,73.79
2017-02-08T06:04:21.965Z,73.69
2017-02-08T06:04:47.592Z,73.79
2017-02-08T06:05:13.180Z,73.79
2017-02-08T06:05:38.740Z,73.59
2017-02-08T06:06:04.305Z,73.59
2017-02-08T06:06:29.998Z,73.69
2017-02-08T06:06:55.565Z,73.79
2017-02-08T06:07:21.139Z,73.88
2017-02-08T06:07:46.848Z,73.5
2017-02-08T06:08:12.407Z,73.59
2017-02-08T06:08:37.975Z,74.26
2017-02-08T06:09:03.579Z,73.69
2017-02-08T06:09:29.131Z,74.26
2017-02-08T06:09:54.690Z,74.36
2017-02-08T06:10:20.259Z,74.26
2017-02-08T06:10:45.823Z,74.36
2017-02-08T06:11:11.496Z,74.26
2017-02-08T06:11:37.054Z,74.16
2017-02-08T06:12:02.616Z,74.36
2017-02-08T06:12:28.183Z,74.16
2017-02-08T06:12:53.736Z,74.16
2017-02-08T06:13:19.328Z,74.16
2017-02-08T06:13:44.898Z,74.26
2017-02-08T06:14:10.453Z,74.16
2017-02-08T06:14:36.040Z,74.16
2017-02-08T06:15:01.643Z,74.16
2017-02-08T06:15:27.190Z,74.07
2017-02-08T06:15:52.734Z,74.07
2017-02-08T06:16:18.307Z,73.97
2017-02-08T06:16:43.993Z,73.97
2017-02-08T06:17:09.535Z,74.36
2017-02-08T06:17:35.091Z,74.16
2017-02-08T06:18:00.689Z,74.07
2017-02-08T06:18:26.270Z,74.16
2017-02-08T06:18:51.830Z,74.36
2017-02-08T06:19:17.386Z,74.16
2017-02-08T06:19:42.950Z,74.36
2017-02-08T06:20:08.514Z,73.97
2017-02-08T06:20:34.176Z,74.07
2017-02-08T06:20:59.720Z,74.07
2017-02-08T06:21:25.287Z,74.16
2017-02-08T06:21:50.851Z,73.97
2017-02-08T06:22:16.413Z,73.88
2017-02-08T06:22:41.956Z,74.07
2017-02-08T06:23:07.516Z,74.07
2017-02-08T06:23:33.072Z,73.88
2017-02-08T06:23:58.700Z,74.07
2017-02-08T06:25:02.289Z,74.07
2017-02-08T06:25:27.846Z,74.07
2017-02-08T06:26:20.823Z,74.26
2017-02-08T06:26:46.372Z,74.07
2017-02-08T06:27:11.922Z,73.97
2017-02-08T06:27:37.494Z,74.07
2017-02-08T06:28:03.049Z,73.97
2017-02-08T06:28:28.631Z,73.97
2017-02-08T06:28:54.195Z,74.16
2017-02-08T06:29:19.828Z,74.26
2017-02-08T06:29:45.434Z,74.16
2017-02-08T06:30:11.021Z,74.26
2017-02-08T06:30:36.604Z,74.16
2017-02-08T06:31:02.204Z,74.26
2017-02-08T06:31:27.756Z,74.16
2017-02-08T06:31:53.428Z,74.26
2017-02-08T06:32:18.978Z,74.36
2017-02-08T06:32:44.550Z,74.16
2017-02-08T06:33:10.147Z,74.36
2017-02-08T06:33:35.734Z,73.69
2017-02-08T06:34:01.286Z,74.36
2017-02-08T06:34:26.843Z,73.69
2017-02-08T06:34:52.398Z,74.36
2017-02-08T06:35:17.948Z,74.36
2017-02-08T06:35:43.498Z,73.79
2017-02-08T06:36:09.222Z,74.36
2017-02-08T06:36:34.767Z,73.88
2017-02-08T06:37:28.018Z,74.07
2017-02-08T06:37:53.577Z,73.88
2017-02-08T06:38:19.183Z,73.88
2017-02-08T06:38:44.744Z,73.88
2017-02-08T06:39:10.311Z,73.69
2017-02-08T06:39:35.890Z,73.79
2017-02-08T06:40:01.542Z,73.69
2017-02-08T06:40:27.193Z,73.5
2017-02-08T06:40:52.746Z,73.69
2017-02-08T06:41:18.316Z,73.5
2017-02-08T06:41:43.946Z,73.5
2017-02-08T06:42:09.516Z,73.59
2017-02-08T06:42:35.107Z,73.59
2017-02-08T06:43:00.715Z,73.59
2017-02-08T06:43:26.278Z,73.69
2017-02-08T06:43:51.834Z,73.59
2017-02-08T06:44:17.395Z,73.88
2017-02-08T06:44:42.942Z,73.79
2017-02-08T06:45:08.489Z,73.79
2017-02-08T06:45:34.055Z,73.79
2017-02-08T06:45:59.593Z,73.79
2017-02-08T06:46:52.874Z,73.79
2017-02-08T06:47:18.467Z,73.69
2017-02-08T06:47:44.048Z,73.79
2017-02-08T06:48:09.617Z,73.69
2017-02-08T06:48:35.220Z,73.69
2017-02-08T06:49:00.796Z,73.79
2017-02-08T06:49:26.516Z,73.69
2017-02-08T06:49:52.094Z,73.59
2017-02-08T06:50:17.657Z,73.69
2017-02-08T06:50:43.316Z,73.59
2017-02-08T06:51:08.955Z,73.59
2017-02-08T06:51:34.518Z,73.79
2017-02-08T06:52:00.092Z,73.59
2017-02-08T06:52:25.689Z,73.97
2017-02-08T06:52:51.309Z,73.79
2017-02-08T06:53:16.879Z,73.59
2017-02-08T06:53:42.442Z,73.97
2017-02-08T06:54:08.146Z,73.88
2017-02-08T06:54:33.708Z,73.88
2017-02-08T06:54:59.255Z,73.5
2017-02-08T06:55:24.850Z,73.88
2017-02-08T06:56:23.340Z,73.79
2017-02-08T06:56:48.894Z,73.79
2017-02-08T06:57:14.453Z,73.79
2017-02-08T06:57:40.047Z,74.16
2017-02-08T06:58:05.617Z,73.5
2017-02-08T06:58:31.206Z,73.88
2017-02-08T06:58:56.765Z,73.69
2017-02-08T06:59:22.438Z,73.69
2017-02-08T06:59:48.018Z,73.97
2017-02-08T07:00:13.569Z,73.97
2017-02-08T07:00:39.199Z,74.16
2017-02-08T07:01:47.751Z,73.5
2017-02-08T07:02:13.324Z,73.97
2017-02-08T07:02:38.965Z,73.79
2017-02-08T07:03:04.526Z,73.69
2017-02-08T07:03:30.079Z,73.69
2017-02-08T07:03:55.617Z,73.69
2017-02-08T07:04:21.247Z,73.79
2017-02-08T07:04:46.782Z,73.79
2017-02-08T07:05:12.325Z,73.97
2017-02-08T07:05:37.872Z,73.69
2017-02-08T07:06:03.499Z,73.79
2017-02-08T07:06:29.112Z,73.79
2017-02-08T07:06:54.667Z,73.97
2017-02-08T07:07:20.265Z,74.16
2017-02-08T07:07:45.817Z,74.16
2017-02-08T07:08:11.372Z,73.79
2017-02-08T07:08:36.932Z,73.97
2017-02-08T07:09:02.465Z,73.79
2017-02-08T07:09:28.016Z,73.88
2017-02-08T07:09:53.582Z,73.79
2017-02-08T07:10:19.180Z,74.26
2017-02-08T07:10:44.727Z,73.88
2017-02-08T07:11:10.285Z,73.59
2017-02-08T07:11:35.845Z,73.59
2017-02-08T07:12:01.393Z,73.88
2017-02-08T07:12:27.033Z,73.59
2017-02-08T07:12:52.613Z,74.07
2017-02-08T07:13:18.164Z,73.69
2017-02-08T07:13:43.740Z,74.36
2017-02-08T07:14:09.339Z,73.69
2017-02-08T07:14:34.880Z,73.69
2017-02-08T07:15:00.427Z,73.5
2017-02-08T07:15:25.989Z,73.69
2017-02-08T07:15:51.559Z,73.69
2017-02-08T07:16:17.249Z,73.4
2017-02-08T07:16:42.826Z,73.79
2017-02-08T07:17:08.457Z,74.26
2017-02-08T07:17:34.087Z,73.69
2017-02-08T07:17:59.914Z,73.69
2017-02-08T07:18:26.377Z,73.69
2017-02-08T07:18:52.052Z,73.79
2017-02-08T07:19:17.612Z,73.59
2017-02-08T07:19:43.285Z,73.88
2017-02-08T07:20:08.835Z,73.88
2017-02-08T07:20:34.394Z,73.88
2017-02-08T07:20:59.955Z,73.69
2017-02-08T07:21:25.678Z,73.79
2017-02-08T07:21:51.234Z,73.4
2017-02-08T07:22:16.778Z,73.69
2017-02-08T07:22:42.332Z,73.69
2017-02-08T07:23:07.893Z,73.5
2017-02-08T07:23:33.508Z,73.5
2017-02-08T07:23:59.077Z,73.59
2017-02-08T07:24:24.642Z,73.59
2017-02-08T07:24:50.192Z,73.59
2017-02-08T07:25:15.813Z,73.69
2017-02-08T07:25:41.393Z,73.5
2017-02-08T07:26:06.955Z,73.5
2017-02-08T07:26:32.683Z,73.59
2017-02-08T07:26:58.253Z,73.5
2017-02-08T07:27:23.853Z,73.5
2017-02-08T07:27:49.403Z,73.5
2017-02-08T07:28:14.957Z,73.69
2017-02-08T07:28:40.599Z,73.69
2017-02-08T07:29:06.167Z,73.69
2017-02-08T07:29:31.877Z,73.5
2017-02-08T07:29:57.388Z,73.5
2017-02-08T07:30:22.949Z,73.69
2017-02-08T07:30:48.514Z,73.5
2017-02-08T07:31:14.072Z,73.69
2017-02-08T07:31:39.619Z,73.5
2017-02-08T07:32:05.199Z,73.5
2017-02-08T07:32:30.779Z,73.5
2017-02-08T07:32:56.336Z,73.5
2017-02-08T07:33:22.005Z,73.3
2017-02-08T07:33:47.645Z,73.4
2017-02-08T07:34:13.209Z,73.5
2017-02-08T07:34:38.807Z,73.3
2017-02-08T07:35:04.374Z,73.4
2017-02-08T07:35:29.943Z,73.5
2017-02-08T07:35:55.532Z,73.3
2017-02-08T07:36:21.105Z,73.3
2017-02-08T07:36:46.671Z,73.5
2017-02-08T07:37:12.251Z,73.5
2017-02-08T07:37:37.823Z,73.4
2017-02-08T07:38:03.393Z,73.4
2017-02-08T07:38:28.955Z,73.3
2017-02-08T07:38:54.530Z,73.21
2017-02-08T07:39:20.075Z,73.21
2017-02-08T07:39:45.645Z,73.3
2017-02-08T07:40:11.222Z,73.21
2017-02-08T07:40:36.786Z,73.3
2017-02-08T07:41:02.364Z,73.21
2017-02-08T07:41:27.928Z,73.11
2017-02-08T07:41:53.495Z,73.21
2017-02-08T07:42:19.136Z,73.21
2017-02-08T07:42:44.698Z,73.02
2017-02-08T07:43:10.467Z,73.11
2017-02-08T07:43:36.027Z,73.02
2017-02-08T07:44:01.580Z,73.3
2017-02-08T07:44:27.144Z,73.3
2017-02-08T07:44:52.789Z,73.21
2017-02-08T07:45:18.382Z,73.3
2017-02-08T07:45:43.965Z,73.11
2017-02-08T07:46:09.530Z,73.11
2017-02-08T07:46:35.091Z,73.02
2017-02-08T07:47:00.643Z,73.4
2017-02-08T07:47:26.213Z,73.02
2017-02-08T07:47:51.758Z,73.3
2017-02-08T07:48:17.335Z,72.92
2017-02-08T07:48:42.894Z,73.21
2017-02-08T07:49:08.504Z,73.4
2017-02-08T07:49:34.083Z,73.4
2017-02-08T07:49:59.646Z,72.92
2017-02-08T07:50:25.344Z,73.5
2017-02-08T07:50:50.916Z,73.3
2017-02-08T07:51:16.467Z,73.4
2017-02-08T07:51:42.138Z,73.3
2017-02-08T07:52:07.714Z,73.02
2017-02-08T07:52:33.357Z,73.21
2017-02-08T07:52:58.985Z,73.21
2017-02-08T07:53:24.542Z,72.63
2017-02-08T07:53:50.103Z,72.92
2017-02-08T07:54:15.655Z,72.92
2017-02-08T07:54:41.234Z,72.83
2017-02-08T07:55:06.784Z,72.73
2017-02-08T07:55:32.340Z,72.83
2017-02-08T07:55:57.897Z,72.83
2017-02-08T07:56:23.484Z,72.83
2017-02-08T07:56:49.186Z,72.83
2017-02-08T07:57:14.750Z,72.92
2017-02-08T07:57:40.323Z,72.73
2017-02-08T07:58:05.871Z,72.73
2017-02-08T07:58:31.446Z,72.83
2017-02-08T07:58:57.037Z,72.73
2017-02-08T07:59:22.629Z,72.83
2017-02-08T07:59:48.180Z,72.83
2017-02-08T08:00:13.765Z,72.73
2017-02-08T08:00:39.334Z,72.83
2017-02-08T08:01:04.907Z,72.92
2017-02-08T08:01:30.475Z,72.92
2017-02-08T08:01:56.076Z,72.83
2017-02-08T08:02:21.630Z,73.11
2017-02-08T08:02:47.192Z,72.92
2017-02-08T08:03:12.845Z,73.02
2017-02-08T08:03:38.398Z,73.11
2017-02-08T08:04:03.964Z,73.11
2017-02-08T08:04:29.525Z,73.02
2017-02-08T08:04:55.083Z,73.02
2017-02-08T08:05:20.735Z,73.02
2017-02-08T08:05:46.318Z,73.02
2017-02-08T08:06:11.894Z,73.02
2017-02-08T08:06:37.524Z,72.92
2017-02-08T08:07:03.068Z,72.83
2017-02-08T08:07:28.662Z,72.92
2017-02-08T08:07:54.212Z,73.11
2017-02-08T08:08:19.903Z,72.92
2017-02-08T08:08:45.461Z,73.02
2017-02-08T08:09:11.012Z,73.02
2017-02-08T08:09:36.740Z,72.73
2017-02-08T08:10:02.286Z,73.02
2017-02-08T08:10:27.843Z,72.92
2017-02-08T08:10:53.528Z,73.02
2017-02-08T08:11:19.085Z,73.11
2017-02-08T08:11:44.632Z,72.92
2017-02-08T08:12:10.205Z,72.92
2017-02-08T08:12:35.842Z,72.92
2017-02-08T08:13:01.384Z,73.02
2017-02-08T08:13:26.941Z,72.92
2017-02-08T08:13:52.522Z,73.02
2017-02-08T08:14:18.070Z,73.11
2017-02-08T08:14:43.692Z,73.02
2017-02-08T08:15:09.234Z,73.02
2017-02-08T08:15:34.785Z,73.02
2017-02-08T08:16:00.448Z,72.83
2017-02-08T08:16:26.002Z,72.83
2017-02-08T08:16:51.582Z,73.02
2017-02-08T08:17:17.152Z,72.73
2017-02-08T08:17:42.848Z,72.73
2017-02-08T08:18:08.538Z,72.83
2017-02-08T08:18:34.103Z,72.83
2017-02-08T08:18:59.662Z,72.83
2017-02-08T08:19:25.299Z,72.73
2017-02-08T08:19:50.885Z,72.83
2017-02-08T08:20:16.517Z,73.02
2017-02-08T08:20:42.132Z,72.83
2017-02-08T08:21:07.692Z,72.92
2017-02-08T08:21:33.291Z,72.92
2017-02-08T08:22:47.057Z,72.83
2017-02-08T08:23:12.617Z,72.63
2017-02-08T08:23:38.192Z,72.83
2017-02-08T08:24:03.733Z,72.73
2017-02-08T08:24:29.939Z,72.44
2017-02-08T08:24:55.516Z,73.02
2017-02-08T08:25:21.089Z,72.83
2017-02-08T08:25:46.660Z,72.63
2017-02-08T08:26:12.210Z,72.73
2017-02-08T08:26:37.766Z,73.02
2017-02-08T08:27:03.323Z,73.02
2017-02-08T08:27:28.906Z,72.92
2017-02-08T08:27:54.465Z,73.02
2017-02-08T08:28:20.025Z,72.73
2017-02-08T08:28:45.578Z,72.44
2017-02-08T08:29:11.148Z,72.83
2017-02-08T08:29:36.770Z,72.92
2017-02-08T08:30:02.341Z,72.83
2017-02-08T08:30:27.894Z,72.92
2017-02-08T08:30:53.544Z,72.73
2017-02-08T08:31:19.221Z,72.63
2017-02-08T08:31:44.809Z,72.63
2017-02-08T08:32:10.471Z,72.63
2017-02-08T08:32:36.043Z,72.63
2017-02-08T08:33:01.600Z,72.83
2017-02-08T08:33:27.161Z,72.73
2017-02-08T08:33:52.770Z,72.73
2017-02-08T08:34:18.332Z,72.73
2017-02-08T08:34:43.890Z,72.73
2017-02-08T08:35:09.443Z,72.83
2017-02-08T08:35:35.001Z,72.63
2017-02-08T08:36:00.589Z,72.73
2017-02-08T08:36:26.223Z,72.63
2017-02-08T08:36:51.770Z,72.54
2017-02-08T08:37:17.313Z,72.63
2017-02-08T08:37:43.023Z,72.63
2017-02-08T08:38:08.581Z,72.54
2017-02-08T08:38:34.135Z,72.63
2017-02-08T08:38:59.828Z,72.83
2017-02-08T08:39:25.395Z,72.83
2017-02-08T08:39:50.968Z,72.63
2017-02-08T08:40:16.518Z,72.73
2017-02-08T08:40:42.062Z,72.73
2017-02-08T08:41:07.625Z,72.73
2017-02-08T08:41:33.179Z,72.54
2017-02-08T08:41:58.745Z,72.63
2017-02-08T08:42:24.312Z,72.73
2017-02-08T08:42:49.903Z,72.63
2017-02-08T08:43:15.462Z,72.73
2017-02-08T08:43:41.019Z,72.73
2017-02-08T08:44:06.589Z,72.73
2017-02-08T08:44:32.146Z,72.63
2017-02-08T08:44:57.693Z,72.83
2017-02-08T08:45:23.302Z,72.73
2017-02-08T08:45:48.873Z,72.63
2017-02-08T08:46:14.429Z,72.83
2017-02-08T08:46:40.029Z,72.73
2017-02-08T08:47:05.597Z,73.02
2017-02-08T08:47:31.184Z,72.73
2017-02-08T08:47:56.997Z,72.73
2017-02-08T08:48:22.602Z,72.83
2017-02-08T08:48:48.160Z,72.73
2017-02-08T08:49:13.765Z,72.83
2017-02-08T08:49:39.358Z,72.83
2017-02-08T08:50:04.938Z,72.83
2017-02-08T08:50:30.540Z,72.73
2017-02-08T08:50:56.113Z,72.83
2017-02-08T08:51:21.667Z,72.54
2017-02-08T08:51:47.361Z,72.54
2017-02-08T08:52:12.965Z,72.83
2017-02-08T08:52:38.530Z,72.83
2017-02-08T08:53:04.079Z,72.83
2017-02-08T08:53:29.790Z,72.83
2017-02-08T08:53:55.349Z,72.73
2017-02-08T08:54:20.931Z,72.83
2017-02-08T08:54:46.500Z,72.44
2017-02-08T08:55:12.082Z,72.44
2017-02-08T08:55:37.646Z,72.44
2017-02-08T08:56:03.211Z,72.34
2017-02-08T08:56:28.921Z,72.44
2017-02-08T08:56:54.494Z,72.83
2017-02-08T08:57:20.097Z,72.83
2017-02-08T08:57:45.654Z,72.83
2017-02-08T08:58:11.343Z,72.83
2017-02-08T08:58:36.886Z,72.83
2017-02-08T08:59:02.465Z,72.83
2017-02-08T08:59:28.068Z,72.73
2017-02-08T08:59:53.604Z,72.63
2017-02-08T09:00:19.158Z,72.92
2017-02-08T09:00:44.724Z,72.63
2017-02-08T09:01:10.274Z,72.73
2017-02-08T09:01:35.839Z,73.02
2017-02-08T09:02:01.395Z,72.73
2017-02-08T09:02:26.964Z,72.54
2017-02-08T09:02:52.524Z,72.73
2017-02-08T09:03:18.074Z,72.73
2017-02-08T09:03:43.683Z,72.63
2017-02-08T09:04:09.350Z,72.83
2017-02-08T09:04:34.901Z,72.73
2017-02-08T09:05:00.450Z,72.63
2017-02-08T09:05:26.007Z,72.73
2017-02-08T09:05:51.602Z,73.02
2017-02-08T09:06:17.178Z,72.83
2017-02-08T09:06:42.738Z,72.73
2017-02-08T09:07:08.300Z,72.44
2017-02-08T09:07:33.886Z,72.83
2017-02-08T09:07:59.486Z,72.92
2017-02-08T09:08:25.046Z,72.83
2017-02-08T09:08:50.601Z,72.83
2017-02-08T09:09:16.288Z,72.83
2017-02-08T09:09:41.856Z,72.73
2017-02-08T09:10:07.405Z,72.34
2017-02-08T09:10:32.965Z,72.73
2017-02-08T09:10:58.539Z,72.54
2017-02-08T09:11:24.139Z,73.02
2017-02-08T09:11:49.812Z,72.73
2017-02-08T09:12:15.402Z,72.92
2017-02-08T09:12:40.979Z,72.92
2017-02-08T09:13:06.539Z,72.63
2017-02-08T09:13:32.163Z,73.02
2017-02-08T09:13:57.754Z,73.02
2017-02-08T09:14:23.309Z,72.63
2017-02-08T09:14:48.886Z,72.63
2017-02-08T09:15:14.443Z,72.63
2017-02-08T09:15:40.040Z,73.02
2017-02-08T09:16:05.594Z,72.83
2017-02-08T09:16:31.167Z,72.83
2017-02-08T09:16:56.811Z,72.63
2017-02-08T09:17:22.517Z,72.63
2017-02-08T09:17:48.085Z,72.54
2017-02-08T09:18:56.735Z,72.63
2017-02-08T09:19:22.412Z,73.02
2017-02-08T09:19:47.960Z,72.63
2017-02-08T09:20:13.515Z,72.92
2017-02-08T09:20:39.180Z,72.73
2017-02-08T09:21:04.713Z,72.73
2017-02-08T09:21:30.261Z,72.73
2017-02-08T09:21:55.823Z,72.92
2017-02-08T09:22:21.377Z,72.83
2017-02-08T09:22:47.001Z,72.63
2017-02-08T09:23:12.555Z,72.83
2017-02-08T09:23:38.110Z,72.73
2017-02-08T09:24:03.711Z,72.73
2017-02-08T09:24:29.252Z,72.73
2017-02-08T09:24:54.805Z,72.63
2017-02-08T09:25:20.391Z,72.73
2017-02-08T09:25:45.916Z,72.83
2017-02-08T09:26:11.557Z,72.73
2017-02-08T09:26:37.151Z,72.73
2017-02-08T09:27:02.699Z,73.02
2017-02-08T09:27:28.263Z,73.02
2017-02-08T09:27:53.813Z,72.63
2017-02-08T09:28:19.355Z,73.02
2017-02-08T09:28:44.924Z,72.83
2017-02-08T09:29:10.500Z,72.73
2017-02-08T09:29:36.025Z,72.83
2017-02-08T09:30:01.605Z,72.44
2017-02-08T09:30:27.195Z,72.44
2017-02-08T09:30:52.740Z,72.44
2017-02-08T09:31:18.300Z,72.54
2017-02-08T09:31:43.834Z,72.54
2017-02-08T09:32:09.380Z,72.44
2017-02-08T09:32:35.048Z,72.44
2017-02-08T09:33:00.600Z,72.44
2017-02-08T09:33:26.171Z,72.54
2017-02-08T09:33:51.721Z,72.44
2017-02-08T09:34:17.329Z,72.54
2017-02-08T09:34:42.870Z,72.25
2017-02-08T09:35:08.468Z,72.44
2017-02-08T09:35:34.037Z,72.63
2017-02-08T09:35:59.673Z,72.54
2017-02-08T09:36:25.288Z,72.54
2017-02-08T09:36:50.865Z,72.25
2017-02-08T09:37:16.441Z,72.54
2017-02-08T09:37:42.020Z,72.54
2017-02-08T09:38:07.594Z,72.54
2017-02-08T09:38:33.148Z,72.54
2017-02-08T09:38:58.712Z,72.63
2017-02-08T09:39:24.257Z,72.73
2017-02-08T09:39:49.908Z,72.73
2017-02-08T09:40:15.488Z,72.25
2017-02-08T09:40:41.070Z,72.54
2017-02-08T09:41:06.626Z,72.54
2017-02-08T09:41:32.170Z,72.54
2017-02-08T09:41:57.723Z,72.54
2017-02-08T09:42:23.285Z,72.73